createdAt,value
2019-03-31T00:02:03.325Z,115.50
2019-03-31T00:04:33.612Z,110.37
2019-03-31T00:07:06.243Z,115.08
2019-03-31T00:09:36.301Z,106.17
2019-03-31T00:12:06.337Z,101.50
2019-03-31T00:14:36.621Z,105.57
2019-03-31T00:17:06.789Z,97.42
2019-03-31T00:19:37.536Z,100.33
2019-03-31T00:22:07.505Z,107.25
2019-03-31T00:24:37.767Z,108.70
2019-03-31T00:27:07.956Z,103.15
2019-03-31T00:29:38.088Z,103.40
2019-03-31T00:32:08.451Z,107.22
2019-03-31T00:34:38.493Z,112.75
2019-03-31T00:37:09.005Z,118.87
2019-03-31T00:39:39.173Z,111.83
2019-03-31T00:42:09.203Z,115.60
2019-03-31T00:44:39.354Z,102.50
2019-03-31T00:47:09.399Z,107.15
2019-03-31T00:49:39.390Z,109.83
2019-03-31T00:52:09.415Z,104.67
2019-03-31T00:54:39.481Z,104.50
2019-03-31T00:57:09.627Z,112.85
2019-03-31T00:59:39.899Z,108.42
2019-03-31T01:02:14.493Z,105.72
2019-03-31T01:04:44.745Z,112.88
2019-03-31T01:07:15.452Z,110.60
2019-03-31T01:09:45.554Z,108.30
2019-03-31T01:12:15.809Z,107.72
2019-03-31T01:14:45.938Z,113.50
2019-03-31T01:17:18.840Z,107.03
2019-03-31T01:19:48.261Z,106.63
2019-03-31T01:22:18.277Z,112.55
2019-03-31T01:24:48.399Z,117.57
2019-03-31T01:27:19.793Z,112.47
2019-03-31T01:29:49.849Z,116.62
2019-03-31T01:32:19.877Z,115.95
2019-03-31T01:34:50.074Z,119.97
2019-03-31T01:37:20.556Z,125.02
2019-03-31T01:39:50.599Z,114.60
2019-03-31T01:42:20.652Z,116.20
2019-03-31T01:44:50.984Z,120.35
2019-03-31T01:47:21.091Z,109.97
2019-03-31T01:49:51.459Z,114.73
2019-03-31T01:52:21.532Z,116.35
2019-03-31T01:54:52.071Z,108.12
2019-03-31T01:57:22.075Z,105.17
2019-03-31T01:59:52.322Z,111.00
2019-03-31T02:02:30.332Z,106.60
2019-03-31T02:05:00.393Z,108.92
2019-03-31T02:07:30.403Z,108.90
2019-03-31T02:10:00.597Z,107.78
2019-03-31T02:12:30.840Z,108.83
2019-03-31T02:15:01.193Z,111.32
2019-03-31T02:17:31.176Z,109.83
2019-03-31T02:20:01.284Z,115.28
2019-03-31T02:22:31.250Z,106.87
2019-03-31T02:25:01.861Z,106.97
2019-03-31T02:27:31.889Z,106.97
2019-03-31T02:30:01.917Z,93.93
2019-03-31T02:32:31.897Z,103.22
2019-03-31T02:35:02.041Z,102.55
2019-03-31T02:37:32.224Z,106.40
2019-03-31T02:40:02.672Z,108.87
2019-03-31T02:42:32.725Z,111.95
2019-03-31T02:45:02.939Z,110.80
2019-03-31T02:47:32.984Z,107.90
2019-03-31T02:50:03.149Z,102.12
2019-03-31T02:52:33.460Z,111.77
2019-03-31T02:55:04.140Z,110.90
2019-03-31T02:57:34.491Z,106.87
2019-03-31T03:00:04.797Z,97.70
2019-03-31T03:02:42.003Z,100.50
2019-03-31T03:05:19.596Z,100.30
2019-03-31T03:07:43.286Z,96.63
2019-03-31T03:10:13.630Z,96.78
2019-03-31T03:12:45.494Z,98.15
2019-03-31T03:15:26.342Z,99.95
2019-03-31T03:17:56.477Z,99.62
2019-03-31T03:20:26.674Z,97.65
2019-03-31T03:22:56.711Z,100.97
2019-03-31T03:25:26.940Z,100.42
2019-03-31T03:27:57.238Z,103.97
2019-03-31T03:30:27.988Z,103.67
2019-03-31T03:33:14.716Z,99.13
2019-03-31T03:35:29.893Z,101.25
2019-03-31T03:37:59.975Z,97.17
2019-03-31T03:40:30.683Z,104.05
2019-03-31T03:43:01.198Z,102.15
2019-03-31T03:45:31.524Z,104.70
2019-03-31T03:48:01.640Z,103.77
2019-03-31T03:50:31.798Z,103.92
2019-03-31T03:53:01.799Z,101.62
2019-03-31T03:55:31.822Z,98.77
2019-03-31T03:58:01.906Z,99.65
2019-03-31T04:00:32.321Z,95.92
2019-03-31T04:03:02.331Z,100.75
2019-03-31T04:05:32.502Z,97.78
2019-03-31T04:08:02.598Z,106.45
2019-03-31T04:11:08.861Z,101.67
2019-03-31T04:13:39.215Z,107.10
2019-03-31T04:16:09.473Z,107.32
2019-03-31T04:18:39.489Z,106.67
2019-03-31T04:21:09.510Z,104.32
2019-03-31T04:23:39.651Z,95.35
2019-03-31T04:26:09.898Z,91.82
2019-03-31T04:28:40.001Z,93.03
2019-03-31T04:31:09.938Z,97.72
2019-03-31T04:33:50.441Z,92.97
2019-03-31T04:36:11.902Z,92.55
2019-03-31T04:38:42.056Z,89.95
2019-03-31T04:41:12.224Z,87.80
2019-03-31T04:43:42.459Z,82.55
2019-03-31T04:46:12.440Z,79.30
2019-03-31T04:48:42.658Z,80.03
2019-03-31T04:51:12.864Z,84.95
2019-03-31T04:53:42.959Z,80.80
2019-03-31T04:56:13.216Z,83.90
2019-03-31T04:58:43.317Z,81.70
2019-03-31T05:01:13.959Z,80.20
2019-03-31T05:03:43.976Z,80.75
2019-03-31T05:06:14.146Z,82.78
2019-03-31T05:08:44.402Z,83.35
2019-03-31T05:11:14.616Z,83.27
2019-03-31T05:13:44.814Z,80.67
2019-03-31T05:16:13.963Z,75.40
2019-03-31T05:18:43.211Z,70.83
2019-03-31T05:21:12.510Z,67.97
2019-03-31T05:23:41.666Z,66.33
2019-03-31T05:26:10.808Z,64.77
2019-03-31T05:28:40.110Z,63.33
2019-03-31T05:31:09.301Z,62.78
2019-03-31T05:33:38.594Z,63.60
2019-03-31T05:36:07.744Z,63.83
2019-03-31T05:38:37.028Z,62.33
2019-03-31T05:41:06.163Z,62.30
2019-03-31T05:43:35.353Z,62.98
2019-03-31T05:46:04.714Z,61.30
2019-03-31T05:48:33.937Z,59.33
2019-03-31T05:51:03.119Z,58.83
2019-03-31T05:53:32.292Z,58.08
2019-03-31T05:56:02.361Z,58.28
2019-03-31T05:58:32.430Z,59.15
2019-03-31T06:01:02.507Z,57.85
2019-03-31T06:03:32.530Z,58.15
2019-03-31T06:06:02.652Z,56.70
2019-03-31T06:08:32.688Z,56.23
2019-03-31T06:11:02.792Z,55.17
2019-03-31T06:13:32.788Z,54.45
2019-03-31T06:16:02.923Z,55.23
2019-03-31T06:18:33.149Z,53.15
2019-03-31T06:21:03.543Z,55.92
2019-03-31T06:23:33.599Z,52.73
2019-03-31T06:26:03.627Z,50.73
2019-03-31T06:28:33.602Z,50.85
2019-03-31T06:31:03.641Z,49.27
2019-03-31T06:33:33.637Z,48.73
2019-03-31T06:36:03.711Z,47.62
2019-03-31T06:38:33.833Z,46.90
2019-03-31T06:41:04.024Z,45.28
2019-03-31T06:43:34.327Z,44.55
2019-03-31T06:46:04.329Z,45.25
2019-03-31T06:48:34.413Z,40.60
2019-03-31T06:51:04.639Z,35.95
2019-03-31T06:53:35.120Z,30.48
2019-03-31T06:56:05.145Z,37.42
2019-03-31T06:58:35.443Z,36.77
2019-03-31T07:01:06.366Z,37.53
2019-03-31T07:03:37.477Z,35.98
2019-03-31T07:06:07.614Z,33.73
2019-03-31T07:08:37.765Z,33.93
2019-03-31T07:11:08.174Z,28.85
2019-03-31T07:13:38.288Z,31.07
2019-03-31T07:16:08.447Z,31.85
2019-03-31T07:18:38.644Z,30.90
2019-03-31T07:21:08.828Z,30.95
2019-03-31T07:23:39.171Z,30.85
2019-03-31T07:26:09.679Z,32.28
2019-03-31T07:28:39.755Z,32.45
2019-03-31T07:31:09.843Z,31.90
2019-03-31T07:33:39.273Z,28.95
2019-03-31T07:36:09.560Z,31.07
2019-03-31T07:38:39.926Z,29.80
2019-03-31T07:41:13.073Z,31.73
2019-03-31T07:43:41.943Z,31.02
2019-03-31T07:46:12.111Z,32.98
2019-03-31T07:48:42.259Z,31.62
2019-03-31T07:51:12.300Z,32.95
2019-03-31T07:53:42.464Z,32.80
2019-03-31T07:56:15.887Z,34.65
2019-03-31T07:58:44.353Z,32.97
2019-03-31T08:01:14.338Z,30.10
2019-03-31T08:03:44.524Z,29.23
2019-03-31T08:06:14.706Z,29.37
2019-03-31T08:08:44.796Z,30.50
2019-03-31T08:11:17.125Z,29.35
2019-03-31T08:13:46.508Z,30.88
2019-03-31T08:16:16.511Z,30.20
2019-03-31T08:18:46.756Z,29.95
2019-03-31T08:21:16.956Z,30.05
2019-03-31T08:23:47.162Z,31.97
2019-03-31T08:26:17.248Z,34.17
2019-03-31T08:28:47.487Z,33.50
2019-03-31T08:31:17.795Z,34.65
2019-03-31T08:33:47.948Z,30.45
2019-03-31T08:36:17.941Z,30.27
2019-03-31T08:38:48.112Z,28.05
2019-03-31T08:41:18.188Z,27.32
2019-03-31T08:43:48.612Z,26.95
2019-03-31T08:46:18.778Z,25.97
2019-03-31T08:48:48.991Z,26.75
2019-03-31T08:51:19.087Z,20.85
2019-03-31T08:53:49.133Z,26.17
2019-03-31T08:56:19.348Z,25.37
2019-03-31T08:58:49.661Z,22.02
2019-03-31T09:01:19.820Z,23.07
2019-03-31T09:03:48.984Z,23.87
2019-03-31T09:06:19.202Z,27.87
2019-03-31T09:08:49.476Z,25.97
2019-03-31T09:11:19.664Z,24.98
2019-03-31T09:13:49.748Z,27.40
2019-03-31T09:16:20.018Z,24.80
2019-03-31T09:18:50.236Z,28.65
2019-03-31T09:21:20.376Z,28.65
2019-03-31T09:23:49.648Z,28.67
2019-03-31T09:26:19.828Z,28.90
2019-03-31T09:28:50.092Z,26.85
2019-03-31T09:31:20.261Z,28.67
2019-03-31T09:33:50.384Z,29.30
2019-03-31T09:36:20.534Z,29.90
2019-03-31T09:38:51.700Z,30.93
2019-03-31T09:41:21.860Z,31.00
2019-03-31T09:43:52.158Z,30.60
2019-03-31T09:46:22.199Z,29.43
2019-03-31T09:48:52.155Z,29.63
2019-03-31T09:51:22.249Z,26.77
2019-03-31T09:53:52.371Z,28.12
2019-03-31T09:56:21.559Z,18.87
2019-03-31T09:58:50.697Z,29.80
2019-03-31T10:01:20.831Z,29.67
2019-03-31T10:03:51.097Z,28.80
2019-03-31T10:06:30.052Z,28.42
2019-03-31T10:08:52.164Z,27.00
2019-03-31T10:11:21.517Z,27.57
2019-03-31T10:13:51.852Z,26.95
2019-03-31T10:16:22.042Z,25.20
2019-03-31T10:18:52.177Z,27.62
2019-03-31T10:21:22.197Z,28.87
2019-03-31T10:23:52.347Z,26.85
2019-03-31T10:26:31.775Z,21.68
2019-03-31T10:28:54.162Z,26.10
2019-03-31T10:31:24.149Z,25.97
2019-03-31T10:33:54.426Z,24.72
2019-03-31T10:36:24.734Z,27.65
2019-03-31T10:38:54.908Z,22.27
2019-03-31T10:41:26.007Z,20.73
2019-03-31T10:43:55.130Z,19.82
2019-03-31T10:46:25.178Z,19.95
2019-03-31T10:48:56.110Z,20.75
2019-03-31T10:51:26.276Z,21.70
2019-03-31T10:53:56.421Z,22.25
2019-03-31T10:56:26.578Z,24.10
2019-03-31T10:58:56.815Z,23.98
2019-03-31T11:01:27.226Z,24.30
2019-03-31T11:03:58.255Z,23.92
2019-03-31T11:06:27.449Z,23.55
2019-03-31T11:08:56.733Z,24.63
2019-03-31T11:11:26.851Z,25.15
2019-03-31T11:13:57.096Z,24.18
2019-03-31T11:16:27.350Z,25.25
2019-03-31T11:18:57.475Z,25.43
2019-03-31T11:21:35.752Z,23.07
2019-03-31T11:24:05.826Z,26.35
2019-03-31T11:26:35.967Z,26.55
2019-03-31T11:29:06.260Z,25.97
2019-03-31T11:31:36.420Z,25.60
2019-03-31T11:34:06.604Z,28.17
2019-03-31T11:36:36.859Z,27.30
2019-03-31T11:39:08.375Z,28.87
2019-03-31T11:41:38.594Z,28.30
2019-03-31T11:44:08.679Z,30.00
2019-03-31T11:46:38.812Z,27.87
2019-03-31T11:49:09.002Z,28.60
2019-03-31T11:51:39.087Z,28.10
2019-03-31T11:54:09.094Z,29.20
2019-03-31T11:56:39.376Z,28.05
2019-03-31T11:59:09.612Z,28.32
2019-03-31T12:01:39.756Z,28.85
2019-03-31T12:04:09.132Z,29.85
2019-03-31T12:06:38.310Z,31.17
2019-03-31T12:09:09.275Z,30.45
2019-03-31T12:11:39.384Z,29.23
2019-03-31T12:14:09.661Z,28.73
2019-03-31T12:16:40.039Z,30.02
2019-03-31T12:19:10.157Z,29.45
2019-03-31T12:21:40.386Z,29.37
2019-03-31T12:24:10.542Z,28.90
2019-03-31T12:26:40.862Z,28.73
2019-03-31T12:29:10.971Z,27.67
2019-03-31T12:31:41.111Z,26.87
2019-03-31T12:34:11.259Z,27.30
2019-03-31T12:36:41.537Z,27.67
2019-03-31T12:39:12.080Z,26.60
2019-03-31T12:41:42.268Z,25.48
2019-03-31T12:44:12.384Z,23.35
2019-03-31T12:46:42.719Z,21.77
2019-03-31T12:49:12.268Z,24.47
2019-03-31T12:51:41.671Z,22.93
2019-03-31T12:54:11.422Z,23.83
2019-03-31T12:56:41.400Z,25.12
2019-03-31T12:59:11.572Z,24.60
2019-03-31T13:01:40.776Z,26.12
2019-03-31T13:04:09.944Z,24.40
2019-03-31T13:06:40.111Z,23.52
2019-03-31T13:09:10.473Z,26.23
2019-03-31T13:11:40.535Z,20.37
2019-03-31T13:14:10.674Z,29.63
2019-03-31T13:16:40.759Z,20.77
2019-03-31T13:19:10.904Z,26.87
2019-03-31T13:21:41.037Z,25.90
2019-03-31T13:24:11.559Z,26.27
2019-03-31T13:26:41.619Z,26.45
2019-03-31T13:29:10.811Z,27.20
2019-03-31T13:31:39.961Z,24.95
2019-03-31T13:34:09.138Z,26.15
2019-03-31T13:36:38.532Z,24.00
2019-03-31T13:39:08.396Z,22.05
2019-03-31T13:41:37.807Z,24.02
2019-03-31T13:44:07.153Z,24.82
2019-03-31T13:46:36.356Z,19.73
2019-03-31T13:49:05.630Z,20.43
2019-03-31T13:51:35.792Z,19.90
2019-03-31T13:54:05.776Z,17.15
2019-03-31T13:56:35.509Z,16.87
2019-03-31T13:59:09.337Z,17.75
2019-03-31T14:01:39.305Z,17.25
2019-03-31T14:04:09.456Z,17.67
2019-03-31T14:06:39.592Z,16.15
2019-03-31T14:09:10.386Z,14.07
2019-03-31T14:11:41.734Z,15.53
2019-03-31T14:14:12.591Z,13.93
2019-03-31T14:16:42.964Z,13.60
2019-03-31T14:19:13.325Z,13.62
2019-03-31T14:21:43.451Z,12.28
2019-03-31T14:24:13.580Z,11.73
2019-03-31T14:26:43.815Z,11.30
2019-03-31T14:29:14.480Z,11.15
2019-03-31T14:31:44.572Z,10.35
2019-03-31T14:34:14.685Z,10.07
2019-03-31T14:36:45.010Z,9.48
2019-03-31T14:39:17.124Z,9.35
2019-03-31T14:41:46.888Z,8.83
2019-03-31T14:44:17.066Z,7.55
2019-03-31T14:46:47.808Z,8.60
2019-03-31T14:49:17.974Z,7.92
2019-03-31T14:51:48.155Z,7.55
2019-03-31T14:54:18.401Z,11.05
2019-03-31T14:56:48.593Z,12.33
2019-03-31T14:59:18.750Z,8.10
2019-03-31T15:01:48.978Z,8.15
2019-03-31T15:04:18.542Z,9.33
2019-03-31T15:06:48.627Z,8.95
2019-03-31T15:09:18.910Z,8.58
2019-03-31T15:11:48.149Z,7.95
2019-03-31T15:14:17.348Z,7.50
2019-03-31T15:16:48.412Z,8.08
2019-03-31T15:19:17.336Z,7.80
2019-03-31T15:21:46.706Z,8.40
2019-03-31T15:24:16.081Z,7.60
2019-03-31T15:26:45.207Z,7.72
2019-03-31T15:29:14.389Z,7.83
2019-03-31T15:31:43.633Z,7.40
2019-03-31T15:34:12.837Z,6.83
2019-03-31T15:36:42.183Z,6.80
2019-03-31T15:39:11.355Z,6.53
2019-03-31T15:41:40.719Z,6.62
2019-03-31T15:44:09.860Z,5.62
2019-03-31T15:46:39.017Z,5.73
2019-03-31T15:49:08.225Z,4.77
2019-03-31T15:51:37.406Z,4.65
2019-03-31T15:54:06.783Z,4.87
2019-03-31T15:56:36.027Z,5.28
2019-03-31T15:59:05.196Z,5.30
2019-03-31T16:01:34.418Z,5.05
2019-03-31T16:04:03.738Z,8.53
2019-03-31T16:06:32.887Z,5.20
2019-03-31T16:09:01.941Z,4.78
2019-03-31T16:11:30.776Z,6.80
2019-03-31T16:13:59.997Z,15.03
2019-03-31T16:16:30.630Z,4.90
2019-03-31T16:18:59.631Z,4.80
2019-03-31T16:21:28.667Z,13.45
2019-03-31T16:23:57.531Z,4.70
2019-03-31T16:26:26.410Z,4.30
2019-03-31T16:28:55.534Z,4.37
2019-03-31T16:31:24.812Z,4.50
2019-03-31T16:33:53.755Z,4.03
2019-03-31T16:36:22.722Z,3.60
2019-03-31T16:38:51.533Z,3.57
2019-03-31T16:41:20.616Z,3.50
2019-03-31T16:43:50.669Z,3.57
2019-03-31T16:46:19.585Z,4.30
2019-03-31T16:48:48.539Z,3.40
2019-03-31T16:51:17.495Z,3.47
2019-03-31T16:53:46.396Z,3.70
2019-03-31T16:56:15.228Z,3.90
2019-03-31T16:58:44.227Z,4.13
2019-03-31T17:01:13.391Z,4.87
2019-03-31T17:03:42.674Z,3.33
2019-03-31T17:06:11.751Z,4.80
2019-03-31T17:08:41.318Z,4.30
2019-03-31T17:11:10.898Z,4.40
2019-03-31T17:13:40.664Z,4.87
2019-03-31T17:16:10.240Z,5.20
2019-03-31T17:18:39.916Z,5.20
2019-03-31T17:21:09.432Z,5.47
2019-03-31T17:23:39.247Z,4.60
2019-03-31T17:26:08.742Z,4.87
2019-03-31T17:28:38.183Z,5.20
2019-03-31T17:31:08.113Z,5.33
2019-03-31T17:33:37.601Z,5.10
2019-03-31T17:36:07.055Z,5.23
2019-03-31T17:38:36.751Z,5.03
2019-03-31T17:41:06.348Z,5.47
2019-03-31T17:43:35.766Z,5.50
2019-03-31T17:46:05.418Z,4.77
2019-03-31T17:48:34.905Z,5.27
2019-03-31T17:51:04.810Z,5.37
2019-03-31T17:53:34.259Z,5.87
2019-03-31T17:56:03.782Z,6.67
2019-03-31T17:58:33.411Z,5.70
2019-03-31T18:01:02.861Z,6.40
2019-03-31T18:03:32.378Z,5.87
2019-03-31T18:06:02.205Z,6.43
2019-03-31T18:08:31.678Z,7.20
2019-03-31T18:11:01.455Z,9.10
2019-03-31T18:13:31.011Z,8.23
2019-03-31T18:16:01.055Z,7.93
2019-03-31T18:18:30.509Z,8.70
2019-03-31T18:21:00.108Z,7.93
2019-03-31T18:23:29.570Z,8.17
2019-03-31T18:25:59.129Z,8.93
2019-03-31T18:28:28.878Z,7.97
2019-03-31T18:30:58.368Z,9.53
2019-03-31T18:33:27.923Z,10.03
2019-03-31T18:35:57.549Z,10.83
2019-03-31T18:38:27.039Z,10.37
2019-03-31T18:40:56.575Z,9.50
2019-03-31T18:43:26.212Z,11.00
2019-03-31T18:45:55.766Z,10.40
2019-03-31T18:48:25.228Z,10.07
2019-03-31T18:50:55.036Z,9.90
2019-03-31T18:53:36.377Z,9.83
2019-03-31T18:56:13.626Z,10.33
2019-03-31T18:58:54.954Z,8.87
2019-03-31T19:01:33.950Z,8.57
2019-03-31T19:04:15.959Z,8.87
2019-03-31T19:07:07.131Z,8.20
2019-03-31T19:09:58.295Z,6.70
2019-03-31T19:12:58.557Z,8.20
2019-03-31T19:15:53.209Z,14.07
2019-03-31T19:18:40.737Z,7.97
2019-03-31T19:21:35.074Z,8.40
2019-03-31T19:24:16.420Z,8.77
2019-03-31T19:27:04.814Z,8.83
2019-03-31T19:29:52.325Z,8.90
2019-03-31T19:32:43.688Z,9.37
2019-03-31T19:35:36.902Z,5.73
2019-03-31T19:38:31.495Z,4.50
2019-03-31T19:41:23.175Z,4.60
2019-03-31T19:44:20.713Z,4.53
2019-03-31T19:47:18.188Z,4.77
2019-03-31T19:50:09.690Z,4.30
2019-03-31T19:52:55.729Z,3.03
2019-03-31T19:55:41.308Z,4.13
2019-03-31T19:58:32.146Z,2.93
2019-03-31T20:01:09.987Z,2.60
2019-03-31T20:04:07.635Z,3.53
2019-03-31T20:06:56.611Z,4.77
2019-03-31T20:09:33.098Z,4.33
2019-03-31T20:12:20.346Z,4.83
2019-03-31T20:15:08.745Z,7.27
2019-03-31T20:17:47.916Z,8.60
2019-03-31T20:20:38.635Z,9.27
2019-03-31T20:23:15.746Z,6.93
2019-03-31T20:25:55.154Z,6.83
2019-03-31T20:28:47.037Z,7.60
2019-03-31T20:31:38.357Z,9.80
2019-03-31T20:34:30.153Z,8.77
2019-03-31T20:37:18.672Z,10.07
2019-03-31T20:40:07.748Z,12.93
2019-03-31T20:42:50.590Z,11.93
2019-03-31T20:45:20.099Z,8.47
2019-03-31T20:47:49.574Z,7.47
2019-03-31T20:50:19.612Z,7.93
2019-03-31T20:52:49.057Z,8.83
2019-03-31T20:55:19.025Z,9.93
2019-03-31T20:57:48.521Z,8.23
2019-03-31T21:00:18.225Z,8.13
2019-03-31T21:02:47.689Z,6.77
2019-03-31T21:05:18.082Z,7.80
2019-03-31T21:07:47.845Z,7.07
2019-03-31T21:10:17.437Z,8.27
2019-03-31T21:12:46.905Z,7.87
2019-03-31T21:15:16.517Z,7.80
2019-03-31T21:17:46.023Z,7.47
2019-03-31T21:20:15.938Z,5.63
2019-03-31T21:22:45.386Z,4.43
2019-03-31T21:25:15.137Z,3.83
2019-03-31T21:27:44.677Z,3.23
2019-03-31T21:30:14.255Z,3.73
2019-03-31T21:32:44.050Z,3.10
2019-03-31T21:35:13.491Z,2.50
2019-03-31T21:37:42.945Z,3.07
2019-03-31T21:40:12.579Z,4.90
2019-03-31T21:42:42.039Z,4.20
2019-03-31T21:45:11.913Z,2.90
2019-03-31T21:47:41.364Z,3.70
2019-03-31T21:50:11.002Z,3.37
2019-03-31T21:52:40.636Z,3.43
2019-03-31T21:55:10.111Z,3.83
2019-03-31T21:57:39.581Z,3.93
2019-03-31T22:00:10.787Z,3.47
2019-03-31T22:02:40.728Z,4.33
2019-03-31T22:05:11.103Z,4.23
2019-03-31T22:07:40.805Z,3.87
2019-03-31T22:10:10.429Z,4.47
2019-03-31T22:12:39.916Z,4.87
2019-03-31T22:15:09.896Z,5.93
2019-03-31T22:17:39.491Z,4.73
2019-03-31T22:20:09.163Z,5.10
2019-03-31T22:22:38.614Z,4.73
2019-03-31T22:25:08.266Z,4.30
2019-03-31T22:27:37.742Z,5.00
2019-03-31T22:30:07.566Z,4.13
2019-03-31T22:32:37.067Z,4.83
2019-03-31T22:35:06.525Z,5.53
2019-03-31T22:37:36.525Z,4.50
2019-03-31T22:40:06.094Z,5.23
2019-03-31T22:42:35.802Z,4.77
2019-03-31T22:45:05.424Z,5.30
2019-03-31T22:47:34.983Z,5.13
2019-03-31T22:50:04.581Z,5.53
2019-03-31T22:52:34.028Z,5.77
2019-03-31T22:55:03.560Z,5.30
2019-03-31T22:57:33.002Z,5.27
2019-03-31T23:00:02.462Z,4.73
2019-03-31T23:02:31.874Z,5.17
2019-03-31T23:05:01.555Z,4.87
2019-03-31T23:07:31.042Z,4.67
2019-03-31T23:10:00.551Z,5.20
2019-03-31T23:12:30.387Z,5.90
2019-03-31T23:14:59.943Z,5.83
2019-03-31T23:17:29.333Z,4.90
2019-03-31T23:19:59.001Z,4.50
2019-03-31T23:22:28.428Z,5.23
2019-03-31T23:24:57.883Z,5.33
2019-03-31T23:27:27.707Z,4.63
2019-03-31T23:29:57.137Z,4.83
2019-03-31T23:32:26.933Z,5.17
2019-03-31T23:34:56.339Z,5.80
2019-03-31T23:37:25.801Z,5.07
2019-03-31T23:39:55.245Z,5.23
2019-03-31T23:42:24.970Z,4.67
2019-03-31T23:44:54.468Z,4.90
2019-03-31T23:47:24.267Z,4.90
2019-03-31T23:49:53.711Z,4.73
2019-03-31T23:52:23.167Z,5.27
2019-03-31T23:54:52.607Z,5.87
2019-03-31T23:57:39.161Z,4.73
